Time;durP1;ratioP1;P1;durP2;ratioP2;P2;SDS_P1;SDS_P2;PMS_P1;PMS_P2;Temp;Humidity;BMP_temperature;BMP_pressure;BME280_temperature;BME280_humidity;BME280_pressure;Samples;Min_cycle;Max_cycle;Signal;HPM_P1;HPM_P2
2023/04/16 00:01:23;;;;;;;23.20;2.83;;;;;;;8.92;100.00;102272.88;5068878;28;20128;-46
2023/04/16 00:03:49;;;;;;;11.82;2.03;;;;;;;8.95;100.00;102267.25;5066012;28;20032;-45
2023/04/16 00:06:14;;;;;;;25.58;2.75;;;;;;;8.84;100.00;102261.97;5067155;28;20045;-46
2023/04/16 00:08:40;;;;;;;14.45;2.38;;;;;;;8.88;100.00;102274.13;5064332;28;20144;-45
2023/04/16 00:11:06;;;;;;;18.17;2.22;;;;;;;8.75;100.00;102277.06;5063905;28;20060;-45
2023/04/16 00:13:31;;;;;;;16.10;2.55;;;;;;;8.84;100.00;102282.59;5049169;28;20047;-46
2023/04/16 00:15:57;;;;;;;20.38;2.78;;;;;;;8.82;100.00;102280.06;5067274;28;20445;-44
2023/04/16 00:18:23;;;;;;;23.42;2.88;;;;;;;8.89;100.00;102278.50;5050453;28;20071;-44
2023/04/16 00:20:49;;;;;;;23.90;2.50;;;;;;;8.94;100.00;102276.28;5060628;28;20541;-44
2023/04/16 00:23:15;;;;;;;14.43;2.10;;;;;;;8.89;100.00;102281.19;5066936;28;20086;-44
2023/04/16 00:25:41;;;;;;;18.55;2.20;;;;;;;8.87;100.00;102277.78;5056699;28;20527;-45
2023/04/16 00:28:07;;;;;;;18.38;2.42;;;;;;;8.86;100.00;102276.09;5067007;28;20029;-46
2023/04/16 00:30:33;;;;;;;10.55;2.10;;;;;;;8.89;100.00;102273.13;5063892;28;20028;-45
2023/04/16 00:32:58;;;;;;;29.48;2.58;;;;;;;8.94;100.00;102268.22;5062935;28;20029;-47
2023/04/16 00:35:24;;;;;;;16.30;2.30;;;;;;;8.96;100.00;102271.63;5061963;28;20060;-44
2023/04/16 00:37:49;;;;;;;21.75;3.20;;;;;;;8.95;100.00;102261.88;5065851;28;20071;-44
2023/04/16 00:40:15;;;;;;;16.23;2.20;;;;;;;8.98;100.00;102260.75;5061772;28;20017;-43
2023/04/16 00:42:40;;;;;;;12.82;2.42;;;;;;;8.97;100.00;102259.88;5062964;28;20032;-46
2023/04/16 00:45:06;;;;;;;13.43;2.47;;;;;;;8.93;100.00;102268.38;5061904;28;20064;-44
2023/04/16 00:47:32;;;;;;;10.02;2.28;;;;;;;8.97;100.00;102259.88;5065394;28;20025;-45
2023/04/16 00:49:57;;;;;;;17.27;2.13;;;;;;;8.91;100.00;102259.59;5064707;28;20496;-44
2023/04/16 00:52:23;;;;;;;16.30;2.47;;;;;;;8.89;100.00;102256.19;5059543;28;20028;-44
2023/04/16 00:54:48;;;;;;;18.67;2.40;;;;;;;8.83;100.00;102268.31;5058684;28;20032;-44
2023/04/16 00:57:13;;;;;;;13.63;1.80;;;;;;;8.87;100.00;102258.16;5054658;28;20104;-43
2023/04/16 00:59:40;;;;;;;23.33;2.08;;;;;;;8.89;100.00;102267.78;5067600;28;20029;-45
2023/04/16 01:02:06;;;;;;;19.80;2.45;;;;;;;8.87;100.00;102263.53;5062399;28;20516;-43
2023/04/16 01:04:32;;;;;;;17.13;2.25;;;;;;;8.87;100.00;102280.47;5053526;28;20111;-44
2023/04/16 01:06:59;;;;;;;14.98;2.17;;;;;;;8.89;100.00;102272.31;5065036;28;20025;-45
2023/04/16 01:09:24;;;;;;;13.18;2.10;;;;;;;8.91;100.00;102276.53;5061598;28;20031;-45
2023/04/16 01:11:49;;;;;;;11.75;1.90;;;;;;;8.89;100.00;102274.97;5060308;28;20025;-44
2023/04/16 01:14:15;;;;;;;16.80;1.90;;;;;;;8.93;100.00;102279.97;5064553;28;20497;-42
2023/04/16 01:16:40;;;;;;;19.75;2.78;;;;;;;8.97;100.00;102276.00;5064712;28;20067;-43
2023/04/16 01:19:05;;;;;;;12.60;2.28;;;;;;;9.01;100.00;102269.38;5067863;28;20393;-45
2023/04/16 01:21:31;;;;;;;12.60;2.75;;;;;;;9.01;100.00;102279.28;5057298;28;20075;-45
2023/04/16 01:23:56;;;;;;;13.73;2.30;;;;;;;8.95;100.00;102274.44;5067247;28;20033;-44
2023/04/16 01:26:22;;;;;;;15.13;2.03;;;;;;;8.94;100.00;102273.59;5067519;28;20434;-44
2023/04/16 01:28:48;;;;;;;27.63;2.60;;;;;;;8.90;100.00;102273.97;5062755;28;20029;-42
2023/04/16 01:31:13;;;;;;;13.20;3.05;;;;;;;8.87;100.00;102269.72;5059389;28;20025;-46
2023/04/16 01:33:39;;;;;;;18.60;2.60;;;;;;;8.80;100.00;102271.28;5066268;28;20397;-45
2023/04/16 01:36:04;;;;;;;19.92;3.05;;;;;;;8.78;100.00;102276.78;5067800;28;20029;-44
2023/04/16 01:38:30;;;;;;;10.02;2.65;;;;;;;8.86;100.00;102275.25;5064953;28;20476;-45
2023/04/16 01:40:58;;;;;;;23.77;3.20;;;;;;;8.86;100.00;102281.47;5060013;28;20029;-44
2023/04/16 01:43:24;;;;;;;25.73;3.00;;;;;;;8.81;100.00;102283.72;5071293;28;20048;-45
2023/04/16 01:45:49;;;;;;;11.52;2.35;;;;;;;8.80;100.00;102279.34;5070813;28;20090;-42
2023/04/16 01:48:15;;;;;;;21.20;3.17;;;;;;;8.82;100.00;102288.13;5071630;28;20074;-42
2023/04/16 01:50:40;;;;;;;23.00;3.25;;;;;;;8.84;100.00;102280.75;5067770;28;20110;-44
2023/04/16 01:53:06;;;;;;;17.85;2.65;;;;;;;8.84;100.00;102286.13;5066565;28;20466;-45
2023/04/16 01:55:32;;;;;;;23.48;3.13;;;;;;;8.87;100.00;102285.00;5071715;28;20087;-45
2023/04/16 01:57:57;;;;;;;12.95;2.92;;;;;;;8.85;100.00;102277.09;5065494;28;20489;-45
2023/04/16 02:00:23;;;;;;;18.95;3.13;;;;;;;8.84;100.00;102279.91;5062508;28;20028;-46
2023/04/16 02:02:48;;;;;;;16.20;3.13;;;;;;;8.86;100.00;102281.47;5064148;28;20024;-46
2023/04/16 02:05:13;;;;;;;26.20;3.22;;;;;;;8.83;100.00;102281.75;5064229;28;20449;-44
2023/04/16 02:07:39;;;;;;;23.60;3.20;;;;;;;8.76;100.00;102284.09;5060351;28;20087;-45
2023/04/16 02:10:06;;;;;;;28.00;3.40;;;;;;;8.74;100.00;102293.28;5068673;28;20020;-43
2023/04/16 02:12:31;;;;;;;19.70;3.08;;;;;;;8.77;100.00;102290.34;5068134;28;20052;-44
2023/04/16 02:14:56;;;;;;;20.17;4.63;;;;;;;8.77;100.00;102285.81;5061507;28;20027;-44
2023/04/16 02:17:22;;;;;;;23.13;3.30;;;;;;;8.74;100.00;102291.47;5067151;28;20115;-45
2023/04/16 02:19:47;;;;;;;21.48;3.72;;;;;;;8.75;100.00;102297.69;5069234;28;20111;-45
2023/04/16 02:22:12;;;;;;;19.17;3.72;;;;;;;8.79;100.00;102288.34;5068216;28;20032;-45
2023/04/16 02:24:38;;;;;;;23.75;3.63;;;;;;;8.75;100.00;102293.16;5070237;28;20323;-46
2023/04/16 02:27:03;;;;;;;21.85;2.95;;;;;;;8.76;100.00;102299.38;5067777;28;20094;-44
2023/04/16 02:29:29;;;;;;;26.10;4.65;;;;;;;8.71;100.00;102301.59;5070911;28;20032;-46
2023/04/16 02:31:54;;;;;;;13.65;2.58;;;;;;;8.66;100.00;102295.78;5071644;28;20063;-44
2023/04/16 02:34:19;;;;;;;24.60;4.22;;;;;;;8.61;100.00;102296.22;5070856;28;20087;-44
2023/04/16 02:36:45;;;;;;;20.45;3.47;;;;;;;8.63;100.00;102294.22;5070741;28;20032;-42
2023/04/16 02:39:10;;;;;;;15.82;3.58;;;;;;;8.66;100.00;102288.59;5067825;28;20506;-46
2023/04/16 02:41:37;;;;;;;12.93;3.65;;;;;;;8.63;100.00;102294.22;5065329;28;20127;-46
2023/04/16 02:44:02;;;;;;;15.38;3.10;;;;;;;8.66;100.00;102293.09;5057169;28;20517;-44
2023/04/16 02:46:28;;;;;;;26.60;3.42;;;;;;;8.69;100.00;102296.38;5063012;28;20108;-45
2023/04/16 02:48:53;;;;;;;22.15;3.20;;;;;;;8.69;100.00;102293.72;5061263;28;20104;-46
2023/04/16 02:51:18;;;;;;;18.95;3.60;;;;;;;8.65;100.00;102296.78;5070415;28;20028;-44
2023/04/16 02:53:44;;;;;;;22.25;3.80;;;;;;;8.64;100.00;102295.94;5068064;28;20107;-47
2023/04/16 02:56:10;;;;;;;32.55;4.25;;;;;;;8.55;100.00;102296.72;5065836;28;20045;-44
2023/04/16 02:58:36;;;;;;;29.05;4.18;;;;;;;8.52;100.00;102300.53;5070370;28;20050;-45
2023/04/16 03:01:01;;;;;;;22.95;4.50;;;;;;;8.57;100.00;102297.44;5069844;28;20127;-45
2023/04/16 03:03:26;;;;;;;18.85;4.38;;;;;;;8.53;100.00;102299.56;5065258;28;20036;-46
2023/04/16 03:05:52;;;;;;;18.13;4.00;;;;;;;8.56;100.00;102296.59;5068213;28;20078;-44
2023/04/16 03:08:17;;;;;;;25.10;3.80;;;;;;;8.53;100.00;102299.56;5070508;28;20016;-44
2023/04/16 03:10:42;;;;;;;35.50;5.60;;;;;;;8.51;100.00;102296.16;5059421;28;20445;-43
2023/04/16 03:13:08;;;;;;;24.65;3.92;;;;;;;8.59;100.00;102297.31;5060577;28;20025;-43
2023/04/16 03:15:33;;;;;;;30.83;4.22;;;;;;;8.53;100.00;102315.66;5067279;28;20097;-46
2023/04/16 03:17:58;;;;;;;28.33;4.45;;;;;;;8.54;100.00;102303.94;5062286;28;20024;-46
2023/04/16 03:20:24;;;;;;;32.83;3.88;;;;;;;8.60;100.00;102304.38;5067904;28;20024;-45
2023/04/16 03:22:51;;;;;;;30.08;5.07;;;;;;;8.49;100.00;102295.44;5062717;28;20138;-44
2023/04/16 03:25:16;;;;;;;18.25;4.30;;;;;;;8.48;100.00;102301.78;5068005;28;20044;-46
2023/04/16 03:27:42;;;;;;;22.98;4.25;;;;;;;8.50;100.00;102305.16;5068515;28;20337;-45
2023/04/16 03:30:09;;;;;;;24.63;4.13;;;;;;;8.57;100.00;102303.66;5068456;28;20064;-47
2023/04/16 03:32:35;;;;;;;34.20;3.80;;;;;;;8.52;100.00;102307.72;5058791;28;20017;-44
2023/04/16 03:35:02;;;;;;;18.77;4.65;;;;;;;8.53;100.00;102304.91;5054977;28;20070;-44
2023/04/16 03:37:27;;;;;;;27.05;4.28;;;;;;;8.51;100.00;102306.88;5058925;28;20477;-47
2023/04/16 03:39:52;;;;;;;30.17;4.03;;;;;;;8.54;100.00;102311.13;5057757;28;20025;-45
2023/04/16 03:42:18;;;;;;;29.67;3.90;;;;;;;8.52;100.00;102313.94;5068813;28;20107;-45
2023/04/16 03:44:43;;;;;;;22.67;4.05;;;;;;;8.51;100.00;102316.78;5068855;28;20035;-45
2023/04/16 03:47:09;;;;;;;26.52;4.22;;;;;;;8.54;100.00;102311.97;5066473;28;20035;-46
2023/04/16 03:49:34;;;;;;;19.60;4.68;;;;;;;8.48;100.00;102312.50;5062313;28;20123;-44
2023/04/16 03:52:00;;;;;;;33.85;5.22;;;;;;;8.52;100.00;102313.94;5069043;28;20104;-47
2023/04/16 03:54:25;;;;;;;22.80;3.95;;;;;;;8.47;100.00;102310.78;5059338;28;20028;-45
2023/04/16 03:56:51;;;;;;;20.77;4.43;;;;;;;8.46;100.00;102319.00;5063334;28;20415;-45
2023/04/16 03:59:17;;;;;;;28.45;4.63;;;;;;;8.36;100.00;102310.84;5062032;28;20031;-45
2023/04/16 04:01:42;;;;;;;32.15;4.75;;;;;;;8.40;100.00;102315.00;5064131;28;20485;-45
2023/04/16 04:04:08;;;;;;;17.67;4.13;;;;;;;8.44;100.00;102324.47;5065769;28;20028;-44
2023/04/16 04:06:34;;;;;;;22.48;4.60;;;;;;;8.43;100.00;102322.78;5069077;28;20028;-43
2023/04/16 04:08:59;;;;;;;25.88;4.22;;;;;;;8.45;100.00;102319.97;5065925;28;20028;-45
2023/04/16 04:11:25;;;;;;;29.58;5.15;;;;;;;8.50;100.00;102315.06;5068075;28;20024;-46
2023/04/16 04:13:50;;;;;;;30.30;4.50;;;;;;;8.50;100.00;102321.25;5065041;28;20330;-45
2023/04/16 04:16:15;;;;;;;39.75;5.00;;;;;;;8.49;100.00;102314.22;5058577;28;20020;-44
2023/04/16 04:18:41;;;;;;;25.90;4.78;;;;;;;8.46;100.00;102319.84;5058596;28;20024;-45
2023/04/16 04:21:07;;;;;;;34.72;4.30;;;;;;;8.48;100.00;102320.56;5058659;28;20095;-45
2023/04/16 04:23:33;;;;;;;29.08;4.85;;;;;;;8.50;100.00;102326.63;5064074;28;20032;-46
2023/04/16 04:26:02;;;;;;;42.38;5.93;;;;;;;8.51;100.00;102322.13;5061886;28;20013;-45
2023/04/16 04:28:27;;;;;;;31.92;5.35;;;;;;;8.46;100.00;102313.63;5061342;28;20393;-44
2023/04/16 04:30:53;;;;;;;30.90;5.88;;;;;;;8.47;100.00;102326.06;5057039;28;20036;-44
2023/04/16 04:33:18;;;;;;;26.15;5.03;;;;;;;8.50;100.00;102315.06;5063254;28;20032;-44
2023/04/16 04:35:43;;;;;;;32.65;4.50;;;;;;;8.46;100.00;102319.00;5069020;28;20016;-45
2023/04/16 04:38:09;;;;;;;23.83;4.95;;;;;;;8.53;100.00;102314.78;5068221;28;20033;-45
2023/04/16 04:40:34;;;;;;;28.80;4.65;;;;;;;8.52;100.00;102324.66;5068143;28;20488;-45
2023/04/16 04:42:59;;;;;;;43.95;5.43;;;;;;;8.57;100.00;102327.81;5065763;28;20035;-43
2023/04/16 04:45:25;;;;;;;32.33;5.80;;;;;;;8.59;100.00;102334.91;5067050;28;20032;-43
2023/04/16 04:47:51;;;;;;;39.70;4.78;;;;;;;8.52;100.00;102340.78;5056619;28;20583;-45
2023/04/16 04:50:17;;;;;;;35.53;5.07;;;;;;;8.54;100.00;102338.81;5066758;28;20033;-46
2023/04/16 04:52:42;;;;;;;24.90;4.03;;;;;;;8.52;100.00;102343.44;5067515;28;20020;-44
2023/04/16 04:55:07;;;;;;;44.40;5.07;;;;;;;8.49;100.00;102337.50;5067202;28;20045;-46
2023/04/16 04:57:33;;;;;;;26.13;4.10;;;;;;;8.55;100.00;102332.44;5062236;28;20029;-45
2023/04/16 04:59:58;;;;;;;37.47;4.53;;;;;;;8.53;100.00;102345.19;5062206;28;20029;-45
2023/04/16 05:02:23;;;;;;;39.75;4.63;;;;;;;8.57;100.00;102343.91;5062954;28;20087;-46
2023/04/16 05:04:49;;;;;;;31.48;4.97;;;;;;;8.50;100.00;102342.72;5057147;28;20095;-45
2023/04/16 05:07:15;;;;;;;15.38;3.30;;;;;;;8.48;100.00;102339.34;5056043;28;20056;-43
2023/04/16 05:09:40;;;;;;;22.90;3.45;;;;;;;8.46;100.00;102344.00;5058069;28;20036;-44
2023/04/16 05:12:06;;;;;;;26.73;3.78;;;;;;;8.51;100.00;102348.97;5060502;28;20036;-45
2023/04/16 05:14:31;;;;;;;30.63;5.05;;;;;;;8.49;100.00;102351.78;5062787;28;20144;-43
2023/04/16 05:16:56;;;;;;;23.73;3.92;;;;;;;8.52;100.00;102346.13;5066462;28;20056;-44
2023/04/16 05:19:22;;;;;;;27.70;4.03;;;;;;;8.51;100.00;102352.50;5059157;28;20482;-45
2023/04/16 05:21:47;;;;;;;24.25;4.25;;;;;;;8.59;100.00;102359.03;5063022;28;20462;-44
2023/04/16 05:24:12;;;;;;;27.27;4.88;;;;;;;8.54;100.00;102349.53;5051765;28;20033;-45
2023/04/16 05:26:38;;;;;;;25.00;3.97;;;;;;;8.52;100.00;102362.25;5063048;28;20028;-44
2023/04/16 05:29:03;;;;;;;22.27;3.58;;;;;;;8.56;100.00;102361.00;5071846;28;20358;-45
2023/04/16 05:31:28;;;;;;;27.30;3.88;;;;;;;8.55;100.00;102370.03;5069773;28;20103;-47
2023/04/16 05:33:54;;;;;;;28.20;3.78;;;;;;;8.59;100.00;102381.38;5069245;28;20032;-47
2023/04/16 05:36:19;;;;;;;34.47;4.57;;;;;;;8.59;100.00;102372.47;5071678;28;20024;-45
2023/04/16 05:38:44;;;;;;;43.58;5.63;;;;;;;8.52;100.00;102378.34;5066055;28;20069;-45
2023/04/16 05:41:10;;;;;;;24.75;3.58;;;;;;;8.56;100.00;102374.44;5071658;28;20029;-45
2023/04/16 05:43:35;;;;;;;21.30;3.97;;;;;;;8.46;100.00;102370.81;5053371;28;20130;-46
2023/04/16 05:46:00;;;;;;;27.65;4.68;;;;;;;8.49;100.00;102378.59;5071586;28;20073;-44
2023/04/16 05:48:26;;;;;;;25.55;4.20;;;;;;;8.54;100.00;102378.22;5071749;28;20032;-47
2023/04/16 05:50:52;;;;;;;34.08;4.30;;;;;;;8.53;100.00;102376.50;5069829;28;20033;-45
2023/04/16 05:53:18;;;;;;;26.80;4.43;;;;;;;8.53;100.00;102380.06;5069542;28;20114;-44
2023/04/16 05:55:43;;;;;;;21.00;4.22;;;;;;;8.53;100.00;102373.81;5071349;28;20049;-45
2023/04/16 05:58:08;;;;;;;46.08;4.60;;;;;;;8.54;100.00;102381.75;5071202;28;20051;-44
2023/04/16 06:00:34;;;;;;;34.47;5.03;;;;;;;8.60;100.00;102383.06;5068021;28;20382;-45
2023/04/16 06:02:59;;;;;;;31.15;4.97;;;;;;;8.54;100.00;102381.75;5069172;28;20547;-45
2023/04/16 06:05:25;;;;;;;39.05;5.78;;;;;;;8.58;100.00;102382.31;5069410;28;20422;-44
2023/04/16 06:07:51;;;;;;;35.53;5.32;;;;;;;8.63;100.00;102387.31;5070627;28;20025;-45
2023/04/16 06:10:16;;;;;;;21.52;4.70;;;;;;;8.66;100.00;102379.00;5069596;28;20399;-45
2023/04/16 06:12:42;;;;;;;28.00;4.85;;;;;;;8.60;100.00;102379.53;5061988;28;20405;-44
2023/04/16 06:15:08;;;;;;;24.02;4.75;;;;;;;8.66;100.00;102387.91;5070606;28;20560;-42
2023/04/16 06:17:33;;;;;;;34.05;5.97;;;;;;;8.62;100.00;102393.66;5072485;28;20028;-45
2023/04/16 06:19:59;;;;;;;18.17;4.53;;;;;;;8.68;100.00;102393.13;5072227;28;20024;-47
2023/04/16 06:22:24;;;;;;;21.65;4.68;;;;;;;8.72;100.00;102386.53;5072526;28;20024;-44
2023/04/16 06:24:49;;;;;;;21.85;4.75;;;;;;;8.69;100.00;102384.97;5068677;28;20017;-45
2023/04/16 06:27:15;;;;;;;21.00;3.97;;;;;;;8.75;100.00;102397.00;5053101;28;20112;-44
2023/04/16 06:29:40;;;;;;;27.02;4.65;;;;;;;8.67;100.00;102396.81;5052032;28;20363;-45
2023/04/16 06:32:06;;;;;;;26.63;4.13;;;;;;;8.69;100.00;102394.81;5052367;28;20127;-43
2023/04/16 06:34:31;;;;;;;20.13;4.72;;;;;;;8.63;100.00;102398.03;5052245;28;20052;-46
2023/04/16 06:36:57;;;;;;;22.30;4.82;;;;;;;8.65;100.00;102404.97;5052326;28;20031;-44
2023/04/16 06:39:22;;;;;;;23.35;4.80;;;;;;;8.64;100.00;102402.44;5051906;28;20024;-45
2023/04/16 06:41:48;;;;;;;20.75;4.40;;;;;;;8.74;100.00;102411.38;5052273;28;20071;-44
2023/04/16 06:44:13;;;;;;;24.10;5.13;;;;;;;8.69;100.00;102406.44;5052595;28;20036;-45
2023/04/16 06:46:39;;;;;;;23.30;5.45;;;;;;;8.69;100.00;102405.56;5051931;28;20033;-43
2023/04/16 06:49:04;;;;;;;29.83;7.15;;;;;;;8.69;100.00;102413.59;5051824;28;20036;-45
2023/04/16 06:51:30;;;;;;;37.10;6.68;;;;;;;8.74;100.00;102414.94;5052268;28;20021;-44
2023/04/16 06:53:55;;;;;;;20.30;5.90;;;;;;;8.78;100.00;102427.09;5055569;28;20028;-43
2023/04/16 06:56:21;;;;;;;30.17;6.57;;;;;;;8.74;100.00;102423.00;5055252;28;20133;-44
2023/04/16 06:58:46;;;;;;;27.02;6.38;;;;;;;8.67;100.00;102431.69;5052097;28;20405;-45
2023/04/16 07:01:12;;;;;;;32.17;7.45;;;;;;;8.65;100.00;102426.44;5052669;28;20025;-45
2023/04/16 07:03:37;;;;;;;30.63;7.35;;;;;;;8.62;100.00;102431.25;5052506;28;20109;-45
2023/04/16 07:06:02;;;;;;;29.33;8.18;;;;;;;8.61;100.00;102446.50;5052179;28;20382;-44
2023/04/16 07:08:28;;;;;;;30.73;9.13;;;;;;;8.63;100.00;102439.16;5051757;28;20052;-46
2023/04/16 07:10:53;;;;;;;34.88;8.95;;;;;;;8.66;100.00;102443.41;5051698;28;20025;-45
2023/04/16 07:13:19;;;;;;;38.22;7.47;;;;;;;8.62;100.00;102452.72;5050270;28;20434;-44
2023/04/16 07:15:45;;;;;;;38.20;8.23;;;;;;;8.57;100.00;102456.63;5051756;28;20021;-43
2023/04/16 07:18:10;;;;;;;38.65;7.78;;;;;;;8.58;100.00;102452.09;5051426;28;20025;-43
2023/04/16 07:20:35;;;;;;;37.35;8.60;;;;;;;8.63;100.00;102454.41;5051379;28;20064;-47
2023/04/16 07:23:01;;;;;;;38.65;8.85;;;;;;;8.65;100.00;102460.50;5051312;28;20021;-44
2023/04/16 07:25:26;;;;;;;33.15;7.75;;;;;;;8.68;100.00;102458.41;5059890;28;20033;-45
2023/04/16 07:27:52;;;;;;;33.88;8.52;;;;;;;8.61;100.00;102459.03;5071743;28;20052;-47
2023/04/16 07:30:17;;;;;;;28.92;7.90;;;;;;;8.67;100.00;102455.84;5069880;28;20025;-43
2023/04/16 07:32:42;;;;;;;38.30;8.90;;;;;;;8.71;100.00;102459.97;5057917;28;20027;-47
2023/04/16 07:35:08;;;;;;;36.28;8.38;;;;;;;8.71;100.00;102462.66;5071444;28;20039;-46
2023/04/16 07:37:33;;;;;;;47.47;8.68;;;;;;;8.68;100.00;102465.59;5062115;28;20025;-46
2023/04/16 07:39:59;;;;;;;21.17;7.97;;;;;;;8.82;100.00;102459.94;5051707;28;20029;-43
2023/04/16 07:42:26;;;;;;;30.35;7.82;;;;;;;8.79;100.00;102465.53;5051854;28;20025;-45
2023/04/16 07:44:51;;;;;;;34.63;8.77;;;;;;;8.73;100.00;102452.66;5050365;28;20017;-45
2023/04/16 07:47:17;;;;;;;37.28;8.88;;;;;;;8.68;100.00;102466.44;5052230;28;20035;-47
2023/04/16 07:49:42;;;;;;;34.95;9.30;;;;;;;8.77;100.00;102468.38;5060849;28;20464;-45
2023/04/16 07:52:08;;;;;;;30.20;9.00;;;;;;;8.81;100.00;102473.47;5070111;28;20047;-46
2023/04/16 07:54:33;;;;;;;38.95;8.60;;;;;;;8.80;100.00;102472.63;5069840;28;20029;-45
2023/04/16 07:56:59;;;;;;;53.72;8.77;;;;;;;8.80;100.00;102475.31;5070641;28;20064;-45
2023/04/16 07:59:24;;;;;;;33.38;7.93;;;;;;;8.77;100.00;102473.75;5071587;28;20024;-44
2023/04/16 08:01:51;;;;;;;33.35;8.90;;;;;;;8.80;100.00;102478.00;5071283;28;20457;-46
2023/04/16 08:04:21;;;;;;;26.50;8.48;;;;;;;8.82;100.00;102481.41;5071140;28;20033;-47
2023/04/16 08:06:47;;;;;;;35.83;8.27;;;;;;;8.92;100.00;102471.56;5071457;28;20021;-46
2023/04/16 08:09:12;;;;;;;36.33;7.45;;;;;;;8.90;100.00;102484.28;5069874;28;20081;-46
2023/04/16 08:11:37;;;;;;;33.13;7.70;;;;;;;8.93;100.00;102480.50;5069894;28;20055;-46
2023/04/16 08:14:03;;;;;;;37.13;7.55;;;;;;;8.91;100.00;102480.63;5060824;28;20029;-45
2023/04/16 08:16:28;;;;;;;20.13;6.53;;;;;;;8.91;100.00;102480.63;5070701;28;20436;-44
2023/04/16 08:18:53;;;;;;;44.47;8.02;;;;;;;8.96;100.00;102489.13;5070330;28;20468;-44
2023/04/16 08:21:18;;;;;;;24.58;6.72;;;;;;;8.98;100.00;102487.16;5070572;28;20430;-46
2023/04/16 08:23:44;;;;;;;26.70;7.10;;;;;;;8.99;100.00;102483.50;5071557;28;20086;-46
2023/04/16 08:26:10;;;;;;;25.45;7.07;;;;;;;8.96;100.00;102478.38;5071333;28;20038;-44
2023/04/16 08:28:35;;;;;;;24.20;6.60;;;;;;;9.05;100.00;102483.94;5070442;28;20031;-45
2023/04/16 08:31:01;;;;;;;25.10;7.95;;;;;;;9.10;100.00;102485.25;5070700;28;20024;-47
2023/04/16 08:33:26;;;;;;;24.70;7.00;;;;;;;9.13;100.00;102489.50;5064697;28;20025;-44
2023/04/16 08:35:51;;;;;;;29.00;8.02;;;;;;;9.14;100.00;102478.66;5051052;28;20064;-45
2023/04/16 08:38:17;;;;;;;27.48;7.70;;;;;;;9.23;100.00;102482.38;5050580;28;20477;-45
2023/04/16 08:40:42;;;;;;;22.65;6.93;;;;;;;9.23;100.00;102479.69;5051338;28;20492;-46
2023/04/16 08:43:12;;;;;;;41.63;6.82;;;;;;;9.26;100.00;102483.94;5033003;28;20082;-47
2023/04/16 08:45:40;;;;;;;31.15;6.90;;;;;;;9.31;100.00;102481.69;5066573;28;20029;-46
2023/04/16 08:48:06;;;;;;;26.75;6.25;;;;;;;9.29;100.00;102480.97;5070982;28;20028;-45
2023/04/16 08:50:32;;;;;;;33.17;6.50;;;;;;;9.28;100.00;102488.19;5070738;28;20028;-44
2023/04/16 08:52:58;;;;;;;25.15;5.95;;;;;;;9.28;100.00;102490.88;5070984;28;20028;-47
2023/04/16 08:55:31;;;;;;;31.20;6.43;;;;;;;9.27;100.00;102486.50;5070735;28;20067;-46
2023/04/16 08:57:57;;;;;;;27.85;6.35;;;;;;;9.26;100.00;102494.69;5071098;28;20438;-46
2023/04/16 09:00:23;;;;;;;21.77;6.75;;;;;;;9.28;100.00;102493.56;5070639;28;20233;-46
2023/04/16 09:02:49;;;;;;;33.30;6.82;;;;;;;9.22;100.00;102489.56;5071630;28;20031;-49
2023/04/16 09:05:20;;;;;;;23.20;7.18;;;;;;;9.31;100.00;102498.66;5069455;28;20389;-43
2023/04/16 09:07:46;;;;;;;24.52;6.68;;;;;;;9.32;100.00;102496.81;5071164;28;20491;-47
2023/04/16 09:10:13;;;;;;;20.38;6.47;;;;;;;9.38;100.00;102504.38;5071127;28;20035;-44
2023/04/16 09:12:40;;;;;;;29.95;7.45;;;;;;;9.48;100.00;102505.28;5051726;28;20037;-45
2023/04/16 09:15:07;;;;;;;30.10;6.37;;;;;;;9.51;100.00;102506.84;5050617;28;20029;-44
2023/04/16 09:17:33;;;;;;;30.90;6.60;;;;;;;9.44;100.00;102493.06;5048825;28;20090;-45
2023/04/16 09:19:58;;;;;;;22.60;6.80;;;;;;;9.40;100.00;102508.63;5048327;28;20486;-44
2023/04/16 09:22:24;;;;;;;29.73;7.15;;;;;;;9.38;100.00;102505.22;5049827;28;20025;-45
2023/04/16 09:24:49;;;;;;;25.52;5.72;;;;;;;9.38;100.00;102513.28;5049810;28;20051;-46
2023/04/16 09:27:16;;;;;;;26.60;7.00;;;;;;;9.44;100.00;102510.03;5049796;28;20104;-45
2023/04/16 09:29:41;;;;;;;27.02;6.05;;;;;;;9.45;100.00;102506.41;5049829;28;20044;-44
2023/04/16 09:32:08;;;;;;;18.77;6.75;;;;;;;9.27;100.00;102510.69;5049879;28;20020;-44
2023/04/16 09:34:37;;;;;;;26.13;6.03;;;;;;;9.30;100.00;102513.09;5060896;28;20024;-45
2023/04/16 09:37:18;;;;;;;35.45;6.30;;;;;;;9.30;100.00;102510.41;5068243;28;20033;-47
2023/04/16 09:39:44;;;;;;;36.25;6.57;;;;;;;9.27;100.00;102512.50;5069825;28;20396;-43
2023/04/16 09:42:10;;;;;;;23.20;6.60;;;;;;;9.31;100.00;102509.41;5069810;28;20036;-46
2023/04/16 09:44:36;;;;;;;17.63;6.80;;;;;;;9.29;100.00;102526.66;5069784;28;20032;-43
2023/04/16 09:47:08;;;;;;;28.60;6.90;;;;;;;9.30;100.00;102523.84;5069567;28;20031;-44
2023/04/16 09:49:42;;;;;;;26.33;6.43;;;;;;;9.30;100.00;102523.84;5069955;28;20060;-43
2023/04/16 09:52:15;;;;;;;27.52;7.25;;;;;;;9.33;100.00;102525.41;5069513;28;20033;-44
2023/04/16 09:54:48;;;;;;;34.03;7.90;;;;;;;9.35;100.00;102527.00;5068341;28;20029;-44
2023/04/16 09:57:17;;;;;;;18.05;6.43;;;;;;;9.41;100.00;102525.59;5066126;28;20149;-48
2023/04/16 09:59:42;;;;;;;30.20;7.28;;;;;;;9.48;100.00;102531.28;5069495;28;20024;-46
2023/04/16 10:02:08;;;;;;;28.35;6.47;;;;;;;9.55;100.00;102532.44;5069054;28;20037;-45
2023/04/16 10:04:50;;;;;;;26.85;6.00;;;;;;;9.63;100.00;102529.94;5070562;28;20115;-45
2023/04/16 10:07:16;;;;;;;27.42;7.32;;;;;;;9.60;100.00;102538.28;5072376;28;20028;-44
2023/04/16 10:09:41;;;;;;;26.50;5.90;;;;;;;9.63;100.00;102540.69;5073088;28;20028;-44
2023/04/16 10:12:07;;;;;;;33.03;7.38;;;;;;;9.67;100.00;102542.16;5073058;28;20418;-45
2023/04/16 10:14:32;;;;;;;29.80;6.70;;;;;;;9.63;100.00;102535.31;5060607;28;20320;-46
2023/04/16 10:16:58;;;;;;;31.63;6.35;;;;;;;9.67;100.00;102531.38;5052709;28;20120;-44
2023/04/16 10:19:24;;;;;;;25.23;7.28;;;;;;;9.75;100.00;102553.06;5052970;28;20487;-45
2023/04/16 10:21:50;;;;;;;27.00;6.93;;;;;;;9.72;100.00;102537.22;5052399;28;20025;-42
2023/04/16 10:24:17;;;;;;;22.10;6.65;;;;;;;9.69;100.00;102548.25;5052544;28;20021;-44
2023/04/16 10:26:43;;;;;;;39.78;10.75;;;;;;;9.70;100.00;102546.41;5069562;28;20169;-44
2023/04/16 10:29:08;;;;;;;27.52;7.65;;;;;;;9.70;100.00;102541.88;5071195;28;20078;-44
2023/04/16 10:31:36;;;;;;;55.05;19.85;;;;;;;9.63;100.00;102546.06;5069552;28;20103;-44
2023/04/16 10:34:02;;;;;;;34.58;7.18;;;;;;;9.72;100.00;102542.59;5063566;28;20078;-45
2023/04/16 10:36:28;;;;;;;22.60;6.50;;;;;;;9.66;100.00;102543.09;5063631;28;20389;-45
2023/04/16 10:38:57;;;;;;;49.47;7.97;;;;;;;9.68;100.00;102549.22;5064572;28;20114;-46
2023/04/16 10:41:25;;;;;;;30.20;6.30;;;;;;;9.73;100.00;102556.88;5068256;28;20043;-44
2023/04/16 10:43:51;;;;;;;27.92;6.40;;;;;;;9.77;100.00;102558.31;5068936;28;20138;-45
2023/04/16 10:46:25;;;;;;;28.73;6.63;;;;;;;9.77;100.00;102553.81;5068292;28;20036;-45
2023/04/16 10:48:55;;;;;;;19.48;6.13;;;;;;;9.79;100.00;102551.81;5067149;28;20024;-44
2023/04/16 10:51:28;;;;;;;31.70;7.03;;;;;;;9.79;100.00;102551.81;5069021;28;20032;-45
2023/04/16 10:54:02;;;;;;;33.75;7.18;;;;;;;9.77;100.00;102555.63;5069580;28;20059;-46
2023/04/16 10:56:29;;;;;;;24.70;7.50;;;;;;;9.76;100.00;102554.75;5068935;28;20481;-45
2023/04/16 10:58:55;;;;;;;32.93;7.83;;;;;;;9.82;100.00;102554.25;5069020;28;20028;-43
2023/04/16 11:01:29;;;;;;;25.42;7.65;;;;;;;9.83;100.00;102547.88;5067381;28;20107;-44
2023/04/16 11:03:54;;;;;;;27.40;7.85;;;;;;;9.82;100.00;102548.88;5068197;28;20060;-44
2023/04/16 11:06:25;;;;;;;42.45;8.90;;;;;;;9.94;100.00;102543.38;5070028;28;20153;-46
2023/04/16 11:08:51;;;;;;;23.88;7.90;;;;;;;10.03;100.00;102537.16;5067775;28;20173;-44
2023/04/16 11:11:20;;;;;;;31.65;8.95;;;;;;;10.14;100.00;102537.09;5058229;28;20056;-43